createdAt,value
2022-08-07T03:35:53.038Z,1.00
2022-08-07T03:36:52.827Z,1.00
2022-08-07T03:37:53.232Z,1.00
2022-08-07T03:45:51.918Z,2.00
2022-08-07T03:47:13.733Z,2.00
2022-08-07T03:47:52.919Z,2.00
2022-08-07T03:52:01.159Z,4.00
2022-08-07T03:52:52.871Z,2.00
2022-08-07T03:54:33.133Z,6.00
2022-08-07T03:54:54.930Z,5.00
2022-08-07T03:56:03.774Z,9.00
2022-08-07T03:56:59.764Z,7.00
2022-08-07T03:58:34.251Z,13.00
2022-08-07T03:59:07.049Z,11.00
2022-08-07T04:00:02.906Z,4.00
2022-08-07T04:00:56.991Z,16.00
2022-08-07T04:01:51.830Z,10.00
2022-08-07T04:02:51.748Z,15.00
2022-08-07T04:03:55.083Z,16.00
2022-08-07T04:04:51.727Z,19.00
2022-08-07T04:05:51.715Z,21.00
2022-08-07T04:06:52.727Z,34.00
2022-08-07T04:07:51.699Z,34.00
2022-08-07T04:08:51.684Z,38.00
2022-08-07T04:09:51.678Z,55.00
2022-08-07T04:10:54.543Z,68.00
2022-08-07T04:12:26.430Z,67.00
2022-08-07T04:12:52.666Z,87.00
2022-08-07T04:14:10.548Z,85.00
2022-08-07T04:14:52.645Z,98.00
2022-08-07T04:15:51.614Z,105.00
2022-08-07T04:16:58.397Z,113.00
2022-08-07T04:18:56.215Z,120.00
2022-08-07T04:18:59.536Z,125.00
2022-08-07T04:19:54.464Z,137.00
2022-08-07T04:20:54.840Z,141.00
2022-08-07T04:22:05.340Z,155.00
2022-08-07T04:22:53.664Z,163.00
2022-08-07T04:24:07.716Z,181.00
2022-08-07T04:24:52.545Z,190.00
2022-08-07T04:25:51.515Z,193.00
2022-08-07T04:26:51.505Z,208.00
2022-08-07T04:27:59.282Z,216.00
2022-08-07T04:28:52.512Z,218.00
2022-08-07T04:30:01.164Z,239.00
2022-08-07T04:30:55.467Z,245.00
2022-08-07T04:32:02.944Z,258.00
2022-08-07T04:32:58.370Z,275.00
2022-08-07T04:33:55.104Z,273.00
2022-08-07T04:34:51.420Z,278.00
2022-08-07T04:35:51.474Z,302.00
2022-08-07T04:36:51.449Z,310.00
2022-08-07T04:38:03.193Z,328.00
2022-08-07T04:38:52.400Z,339.00
2022-08-07T04:39:51.411Z,357.00
2022-08-07T04:40:53.118Z,372.00
2022-08-07T04:41:51.352Z,399.00
2022-08-07T04:42:52.341Z,424.00
2022-08-07T04:44:10.027Z,441.00
2022-08-07T04:44:54.616Z,480.00
2022-08-07T04:46:01.358Z,506.00
2022-08-07T04:47:04.493Z,538.00
2022-08-07T04:47:57.907Z,556.00
2022-08-07T04:48:52.304Z,608.00
2022-08-07T04:49:57.709Z,635.00
2022-08-07T04:50:53.058Z,679.00
2022-08-07T04:51:51.251Z,727.00
2022-08-07T04:52:52.518Z,772.00
2022-08-07T04:54:05.239Z,810.00
2022-08-07T04:54:51.222Z,853.00
2022-08-07T04:58:10.445Z,887.00
2022-08-07T04:58:15.548Z,912.00
2022-08-07T04:58:16.149Z,953.00
2022-08-07T04:59:17.240Z,987.00
2022-08-07T05:00:09.839Z,1012.00
2022-08-07T05:00:52.219Z,1056.00
2022-08-07T05:01:51.327Z,1091.00
2022-08-07T05:02:51.140Z,1136.00
2022-08-07T05:04:06.452Z,1189.00
2022-08-07T05:04:51.123Z,1225.00
2022-08-07T05:05:53.344Z,1270.00
2022-08-07T05:06:51.356Z,1330.00
2022-08-07T05:07:51.719Z,1366.00
2022-08-07T05:09:01.035Z,1422.00
2022-08-07T05:09:51.071Z,1465.00
2022-08-07T05:10:51.060Z,1517.00
2022-08-07T05:11:57.007Z,1591.00
2022-08-07T05:12:53.845Z,1648.00
2022-08-07T05:14:53.337Z,1699.00
2022-08-07T05:15:04.318Z,1765.00
2022-08-07T05:15:52.028Z,1845.00
2022-08-07T05:16:52.910Z,1929.00
2022-08-07T05:17:54.828Z,1984.00
2022-08-07T05:18:50.981Z,2061.00
2022-08-07T05:19:50.965Z,2134.00
2022-08-07T05:20:50.963Z,2199.00
2022-08-07T05:22:00.564Z,2275.00
2022-08-07T05:22:51.958Z,2356.00
2022-08-07T05:23:50.926Z,2442.00
2022-08-07T05:24:51.169Z,2522.00
2022-08-07T05:26:10.662Z,2614.00
2022-08-07T05:26:51.916Z,2703.00
2022-08-07T05:28:02.452Z,2792.00
2022-08-07T05:28:51.892Z,2880.00
2022-08-07T05:29:52.108Z,2975.00
2022-08-07T05:30:50.854Z,3075.00
2022-08-07T05:31:52.805Z,3166.00
2022-08-07T05:32:50.835Z,3246.00
2022-08-07T05:34:01.365Z,3353.00
2022-08-07T05:34:51.835Z,3455.00
2022-08-07T05:35:50.801Z,3554.00
2022-08-07T05:36:52.952Z,3655.00
2022-08-07T05:38:08.943Z,3744.00
2022-08-07T05:38:58.046Z,3837.00
2022-08-07T05:40:16.607Z,3926.00
2022-08-07T05:40:51.767Z,4014.00
2022-08-07T05:42:02.212Z,4095.00
2022-08-07T05:42:55.638Z,4164.00
2022-08-07T05:44:12.050Z,4262.00
2022-08-07T05:45:04.303Z,4356.00
2022-08-07T05:45:51.724Z,4442.00
2022-08-07T05:46:51.233Z,4535.00
2022-08-07T05:48:01.830Z,4630.00
2022-08-07T05:48:58.363Z,4734.00
2022-08-07T05:49:51.691Z,4818.00
2022-08-07T05:50:50.801Z,4905.00
2022-08-07T05:51:50.648Z,5016.00
2022-08-07T05:52:50.637Z,5074.00
2022-08-07T05:54:09.215Z,5196.00
2022-08-07T05:54:55.469Z,5262.00
2022-08-07T05:56:01.998Z,5343.00
2022-08-07T05:56:51.641Z,5423.00
2022-08-07T05:57:50.587Z,5486.00
2022-08-07T05:58:52.712Z,5559.00
2022-08-07T05:59:57.132Z,5638.00
2022-08-07T06:00:51.577Z,5727.00
2022-08-07T06:01:50.588Z,5813.00
2022-08-07T06:02:50.538Z,5867.00
2022-08-07T06:03:57.140Z,5936.00
2022-08-07T06:04:51.536Z,6002.00
2022-08-07T06:05:56.684Z,6065.00
2022-08-07T06:06:56.415Z,6156.00
2022-08-07T06:08:14.846Z,6225.00
2022-08-07T06:08:51.667Z,6306.00
2022-08-07T06:10:05.718Z,6378.00
2022-08-07T06:10:54.613Z,6451.00
2022-08-07T06:11:50.446Z,6514.00
2022-08-07T06:12:50.440Z,6581.00
2022-08-07T06:14:13.218Z,6638.00
2022-08-07T06:14:50.419Z,6713.00
2022-08-07T06:15:50.408Z,6780.00
2022-08-07T06:16:55.840Z,6840.00
2022-08-07T06:17:55.381Z,6913.00
2022-08-07T06:18:51.751Z,6987.00
2022-08-07T06:20:03.200Z,7046.00
2022-08-07T06:22:14.679Z,7123.00
2022-08-07T06:22:15.158Z,7208.00
2022-08-07T06:23:02.341Z,7271.00
2022-08-07T06:24:39.164Z,7355.00
2022-08-07T06:24:58.064Z,7415.00
2022-08-07T06:25:54.761Z,7479.00
2022-08-07T06:26:51.319Z,7556.00
2022-08-07T06:28:01.254Z,7613.00
2022-08-07T06:28:50.276Z,7696.00
2022-08-07T06:29:50.265Z,7750.00
2022-08-07T06:30:51.849Z,7820.00
2022-08-07T06:31:50.724Z,7891.00
2022-08-07T06:32:50.233Z,7968.00
2022-08-07T06:33:50.224Z,8041.00
2022-08-07T06:34:50.216Z,8130.00
2022-08-07T06:36:06.385Z,8205.00
2022-08-07T06:36:51.910Z,8300.00
2022-08-07T06:37:50.185Z,8396.00
2022-08-07T06:38:59.198Z,8497.00
2022-08-07T06:40:17.844Z,8598.00
2022-08-07T06:40:51.337Z,8700.00
2022-08-07T06:42:02.018Z,8823.00
2022-08-07T06:42:51.154Z,8904.00
2022-08-07T06:44:01.390Z,9009.00
2022-08-07T06:44:51.458Z,9100.00
2022-08-07T06:45:50.100Z,9194.00
2022-08-07T06:46:53.652Z,9267.00
2022-08-07T06:47:58.790Z,9380.00
2022-08-07T06:48:51.094Z,9467.00
2022-08-07T06:49:50.809Z,9518.00
2022-08-07T06:50:50.051Z,9583.00
2022-08-07T06:51:50.412Z,9641.00
2022-08-07T06:52:52.902Z,9715.00
2022-08-07T06:55:28.954Z,9851.00
2022-08-07T06:55:31.422Z,9998.00
2022-08-07T06:56:00.436Z,10220.00
2022-08-07T06:56:51.019Z,10471.00
2022-08-07T06:57:56.404Z,10649.00
2022-08-07T07:00:11.647Z,10747.00
2022-08-07T07:00:11.648Z,10857.00
2022-08-07T07:00:52.968Z,10945.00
2022-08-07T07:01:50.900Z,11037.00
2022-08-07T07:02:54.193Z,11137.00
2022-08-07T07:03:57.242Z,11242.00
2022-08-07T07:04:55.066Z,11297.00
2022-08-07T07:06:04.990Z,11376.00
2022-08-07T07:07:00.588Z,11431.00
2022-08-07T07:07:59.879Z,11509.00
2022-08-07T07:08:50.912Z,11625.00
2022-08-07T07:09:49.860Z,11680.00
2022-08-07T07:10:56.518Z,11745.00
2022-08-07T07:12:08.217Z,11821.00
2022-08-07T07:12:50.418Z,11969.00
2022-08-07T07:13:58.413Z,11966.00
2022-08-07T07:14:49.813Z,12033.00
2022-08-07T07:15:51.782Z,12084.00
2022-08-07T07:16:53.382Z,12163.00
2022-08-07T07:17:50.512Z,12247.00
2022-08-07T07:18:49.776Z,12300.00
2022-08-07T07:19:57.138Z,12332.00
2022-08-07T07:20:50.207Z,12396.00
2022-08-07T07:22:05.100Z,12454.00
2022-08-07T07:24:09.886Z,12496.00
2022-08-07T07:24:11.242Z,12529.00
2022-08-07T07:24:56.862Z,12578.00
2022-08-07T07:26:34.959Z,12603.00
2022-08-07T07:26:52.314Z,12640.00
2022-08-07T07:27:58.398Z,12677.00
2022-08-07T07:29:57.008Z,12727.00
2022-08-07T07:30:09.206Z,12759.00
2022-08-07T07:30:49.656Z,12794.00
2022-08-07T07:31:49.647Z,12802.00
2022-08-07T07:32:49.639Z,12821.00
2022-08-07T07:33:56.460Z,12839.00
2022-08-07T07:34:50.641Z,12832.00
2022-08-07T07:36:03.940Z,12807.00
2022-08-07T07:36:52.753Z,12783.00
2022-08-07T07:38:02.035Z,12757.00
2022-08-07T07:38:49.576Z,12714.00
2022-08-07T07:39:54.944Z,12744.00
2022-08-07T07:40:49.554Z,12676.00
2022-08-07T07:42:02.158Z,12731.00
2022-08-07T07:42:51.331Z,12833.00
2022-08-07T07:44:17.420Z,12875.00
2022-08-07T07:44:49.867Z,12943.00
2022-08-07T07:46:36.752Z,12998.00
2022-08-07T07:46:57.272Z,13132.00
2022-08-07T07:47:52.699Z,13422.00
2022-08-07T07:48:49.479Z,13650.00
2022-08-07T07:50:34.755Z,13837.00
2022-08-07T07:50:49.463Z,13834.00
2022-08-07T07:51:58.468Z,13942.00
2022-08-07T07:52:50.459Z,14131.00
2022-08-07T07:53:51.858Z,14040.00
2022-08-07T07:54:50.606Z,13969.00
2022-08-07T07:55:57.426Z,13799.00
2022-08-07T07:56:50.424Z,13792.00
2022-08-07T07:57:53.599Z,13712.00
2022-08-07T07:58:49.387Z,13810.00
2022-08-07T07:59:52.224Z,13787.00
2022-08-07T08:00:53.831Z,13936.00
2022-08-07T08:02:01.667Z,13971.00
2022-08-07T08:03:05.819Z,14002.00
2022-08-07T08:04:10.511Z,13915.00
2022-08-07T08:04:50.689Z,14212.00
2022-08-07T08:05:53.985Z,14276.00
2022-08-07T08:06:52.046Z,13971.00
2022-08-07T08:07:59.703Z,14329.00
2022-08-07T08:08:50.303Z,14258.00
2022-08-07T08:09:52.032Z,14219.00
2022-08-07T08:10:50.286Z,14142.00
2022-08-07T08:12:02.221Z,14191.00
2022-08-07T08:12:58.879Z,14209.00
2022-08-07T08:13:54.365Z,13993.00
2022-08-07T08:14:49.230Z,13202.00
2022-08-07T08:15:57.864Z,12878.00
2022-08-07T08:16:50.860Z,12843.00
2022-08-07T08:17:57.461Z,12818.00
2022-08-07T08:18:50.400Z,12765.00
2022-08-07T08:20:17.523Z,12760.00
2022-08-07T08:20:50.192Z,12807.00
2022-08-07T08:21:55.345Z,12821.00
2022-08-07T08:22:56.322Z,12729.00
2022-08-07T08:23:50.184Z,12668.00
2022-08-07T08:24:54.830Z,12509.00
2022-08-07T08:25:49.686Z,12437.00
2022-08-07T08:26:50.387Z,12461.00
2022-08-07T08:27:56.891Z,12421.00
2022-08-07T08:28:49.092Z,12407.00
2022-08-07T08:29:54.177Z,12445.00
2022-08-07T08:30:51.504Z,12515.00
2022-08-07T08:31:58.845Z,12844.00
2022-08-07T08:32:50.280Z,13009.00
2022-08-07T08:33:55.284Z,13615.00
2022-08-07T08:34:50.057Z,13469.00
2022-08-07T08:35:50.740Z,13549.00
2022-08-07T08:36:49.016Z,13501.00
2022-08-07T08:38:00.506Z,13641.00
2022-08-07T08:38:50.018Z,13350.00
2022-08-07T08:39:54.933Z,13345.00
2022-08-07T08:40:50.001Z,13440.00
2022-08-07T08:41:58.334Z,13775.00
2022-08-07T08:42:51.545Z,13615.00
2022-08-07T08:43:59.133Z,13443.00
2022-08-07T08:44:48.938Z,13702.00
2022-08-07T08:46:00.721Z,14249.00
2022-08-07T08:46:49.939Z,15366.00
2022-08-07T08:47:52.612Z,15868.00
2022-08-07T08:48:50.930Z,16043.00
2022-08-07T08:50:02.395Z,14950.00
2022-08-07T08:50:51.673Z,15110.00
2022-08-07T08:51:49.552Z,15818.00
2022-08-07T08:52:54.078Z,15830.00
2022-08-07T08:53:48.894Z,14659.00
2022-08-07T08:54:48.845Z,13876.00
2022-08-07T08:55:54.993Z,13762.00
2022-08-07T08:56:49.847Z,13276.00
2022-08-07T08:57:48.817Z,12271.00
2022-08-07T08:58:50.450Z,12786.00
2022-08-07T08:59:50.264Z,13085.00
2022-08-07T09:00:51.734Z,13945.00
2022-08-07T09:01:49.467Z,13695.00
2022-08-07T09:02:52.395Z,14416.00
2022-08-07T09:03:52.589Z,14747.00
2022-08-07T09:04:48.744Z,14534.00
2022-08-07T09:05:48.804Z,14485.00
2022-08-07T09:06:48.738Z,14471.00
2022-08-07T09:07:58.053Z,14351.00
2022-08-07T09:08:49.730Z,15021.00
2022-08-07T09:09:48.699Z,15670.00
2022-08-07T09:10:48.693Z,16214.00
2022-08-07T09:11:53.336Z,16228.00
2022-08-07T09:12:53.430Z,16279.00
2022-08-07T09:13:49.354Z,16410.00
2022-08-07T09:14:50.725Z,16383.00
2022-08-07T09:16:23.873Z,16223.00
2022-08-07T09:16:49.658Z,16007.00
2022-08-07T09:17:59.606Z,16036.00
2022-08-07T09:18:58.267Z,16035.00
2022-08-07T09:19:53.266Z,16090.00
2022-08-07T09:20:58.141Z,16104.00
2022-08-07T09:22:22.706Z,15955.00
2022-08-07T09:24:31.059Z,15916.00
2022-08-07T09:24:32.765Z,15834.00
2022-08-07T09:25:00.613Z,15705.00
2022-08-07T09:25:54.228Z,15816.00
2022-08-07T09:26:50.993Z,15848.00
2022-08-07T09:27:59.848Z,15770.00
2022-08-07T09:30:04.319Z,15828.00
2022-08-07T09:30:07.341Z,15777.00
2022-08-07T09:30:54.253Z,15802.00
2022-08-07T09:31:49.462Z,15702.00
2022-08-07T09:32:48.487Z,15803.00
2022-08-07T09:33:56.587Z,15682.00
2022-08-07T09:34:53.619Z,15953.00
2022-08-07T09:36:04.671Z,15970.00
2022-08-07T09:36:49.843Z,16082.00
2022-08-07T09:37:54.238Z,16126.00
2022-08-07T09:38:53.624Z,16229.00
2022-08-07T09:39:55.559Z,16330.00
2022-08-07T09:40:50.109Z,16404.00
2022-08-07T09:41:58.907Z,16484.00
2022-08-07T09:42:50.298Z,16556.00
2022-08-07T09:44:06.563Z,16653.00
2022-08-07T09:47:20.285Z,16744.00
2022-08-07T09:47:25.192Z,16784.00
2022-08-07T09:47:52.607Z,16753.00
2022-08-07T09:48:01.334Z,16718.00
2022-08-07T09:50:00.575Z,16184.00
2022-08-07T09:50:02.148Z,16672.00
2022-08-07T09:50:51.402Z,16689.00
2022-08-07T09:52:15.745Z,17473.00
2022-08-07T09:52:51.772Z,17484.00
2022-08-07T09:53:56.124Z,17395.00
2022-08-07T09:54:49.310Z,17419.00
2022-08-07T09:56:03.357Z,17405.00
2022-08-07T09:56:48.269Z,17612.00
2022-08-07T09:57:48.265Z,17481.00
2022-08-07T09:58:48.753Z,17644.00
2022-08-07T10:00:01.514Z,17388.00
2022-08-07T10:00:50.557Z,17358.00
2022-08-07T10:01:53.118Z,17788.00
2022-08-07T10:02:55.892Z,17994.00
2022-08-07T10:04:05.963Z,17771.00
2022-08-07T10:04:53.302Z,18061.00
2022-08-07T10:06:01.305Z,18244.00
2022-08-07T10:06:55.620Z,18261.00
2022-08-07T10:07:52.747Z,18323.00
2022-08-07T10:08:49.583Z,18421.00
2022-08-07T10:10:00.238Z,18546.00
2022-08-07T10:11:16.676Z,18715.00
2022-08-07T10:12:01.168Z,18801.00
2022-08-07T10:12:53.023Z,19006.00
2022-08-07T10:14:00.881Z,19155.00
2022-08-07T10:14:54.182Z,19279.00
2022-08-07T10:15:48.103Z,19293.00
2022-08-07T10:16:48.205Z,19308.00
2022-08-07T10:18:01.135Z,19396.00
2022-08-07T10:18:48.078Z,19411.00
2022-08-07T10:19:48.073Z,19481.00
2022-08-07T10:20:50.376Z,19545.00
2022-08-07T10:22:12.649Z,19654.00
2022-08-07T10:22:51.044Z,19582.00
2022-08-07T10:24:05.440Z,19608.00
2022-08-07T10:24:49.048Z,19721.00
2022-08-07T10:25:48.014Z,19904.00
2022-08-07T10:26:53.044Z,20160.00
2022-08-07T10:27:47.997Z,20015.00
2022-08-07T10:28:49.666Z,20572.00
2022-08-07T10:29:51.884Z,21137.00
2022-08-07T10:30:47.968Z,20491.00
2022-08-07T10:31:49.586Z,23042.00
2022-08-07T10:32:52.677Z,22688.00
2022-08-07T10:34:06.778Z,23062.00
2022-08-07T10:34:48.961Z,23083.00
2022-08-07T10:35:56.467Z,24916.00
2022-08-07T10:36:48.949Z,30151.00
2022-08-07T10:38:00.948Z,30436.00
2022-08-07T10:38:49.955Z,28580.00
2022-08-07T10:40:02.631Z,28827.00
2022-08-07T10:40:48.904Z,28741.00
2022-08-07T10:41:53.788Z,29579.00
2022-08-07T10:42:50.053Z,30941.00
2022-08-07T10:43:47.863Z,33412.00
2022-08-07T10:44:47.850Z,34942.00
2022-08-07T10:45:58.395Z,35132.00
2022-08-07T10:46:48.854Z,34567.00
2022-08-07T10:47:51.632Z,33483.00
2022-08-07T10:48:47.813Z,30174.00
2022-08-07T10:49:51.001Z,29539.00
2022-08-07T10:50:50.372Z,29063.00
2022-08-07T10:52:01.926Z,27890.00
2022-08-07T10:52:51.546Z,27479.00
2022-08-07T10:53:47.770Z,27238.00
2022-08-07T10:54:53.366Z,27017.00
2022-08-07T10:55:48.774Z,27127.00
2022-08-07T10:56:47.747Z,27540.00
2022-08-07T10:57:56.182Z,28495.00
2022-08-07T10:58:56.722Z,30331.00
2022-08-07T10:59:47.760Z,32552.00
2022-08-07T11:00:50.179Z,32451.00
2022-08-07T11:01:51.928Z,31704.00
2022-08-07T11:02:49.123Z,31273.00
2022-08-07T11:03:54.861Z,30921.00
2022-08-07T11:04:48.698Z,30813.00
2022-08-07T11:05:50.902Z,31426.00
2022-08-07T11:06:47.658Z,31353.00
2022-08-07T11:07:58.981Z,30845.00
2022-08-07T11:08:48.684Z,31279.00
2022-08-07T11:10:09.341Z,31454.00
2022-08-07T11:10:55.391Z,32108.00
2022-08-07T11:11:51.825Z,32969.00
2022-08-07T11:12:48.996Z,33265.00
2022-08-07T11:14:57.400Z,32538.00
2022-08-07T11:14:57.427Z,27232.00
2022-08-07T11:15:54.736Z,19696.00
2022-08-07T11:16:52.797Z,20336.00
2022-08-07T11:17:47.977Z,24467.00
2022-08-07T11:18:51.085Z,34630.00
2022-08-07T11:19:47.550Z,35233.00
2022-08-07T11:20:47.536Z,34733.00
2022-08-07T11:21:47.527Z,34469.00
2022-08-07T11:22:47.524Z,34392.00
2022-08-07T11:23:48.534Z,33943.00
2022-08-07T11:24:47.507Z,33832.00
2022-08-07T11:25:49.837Z,34166.00
2022-08-07T11:26:49.913Z,33500.00
2022-08-07T11:28:02.074Z,33231.00
2022-08-07T11:28:55.127Z,32921.00
2022-08-07T11:29:53.882Z,33724.00
2022-08-07T11:30:48.476Z,35503.00
2022-08-07T11:31:47.448Z,35484.00
2022-08-07T11:32:47.437Z,33456.00
2022-08-07T11:33:53.750Z,34577.00
2022-08-07T11:34:48.439Z,35383.00
2022-08-07T11:36:00.352Z,35815.00
2022-08-07T11:36:49.671Z,36645.00
2022-08-07T11:37:58.414Z,37341.00
2022-08-07T11:38:50.646Z,36777.00
2022-08-07T11:40:00.341Z,36918.00
2022-08-07T11:40:49.743Z,36011.00
2022-08-07T11:42:01.517Z,37241.00
2022-08-07T11:42:48.373Z,37543.00
2022-08-07T11:44:10.690Z,36179.00
2022-08-07T11:44:52.591Z,38620.00
2022-08-07T11:45:49.878Z,38980.00
2022-08-07T11:46:48.765Z,38732.00
2022-08-07T11:47:56.081Z,37799.00
2022-08-07T11:49:27.439Z,36850.00
2022-08-07T11:50:18.544Z,36405.00
2022-08-07T11:50:57.729Z,38580.00
2022-08-07T11:51:47.274Z,22651.00
2022-08-07T11:52:47.264Z,21834.00
2022-08-07T11:54:00.977Z,21902.00
2022-08-07T11:54:54.766Z,22409.00
2022-08-07T11:56:25.775Z,26245.00
2022-08-07T11:56:52.303Z,44714.00
2022-08-07T11:57:58.087Z,41361.00
2022-08-07T11:58:49.887Z,40588.00
2022-08-07T12:00:10.247Z,43256.00
2022-08-07T12:01:01.731Z,41515.00
2022-08-07T12:01:59.245Z,42795.00
2022-08-07T12:02:52.000Z,44450.00
2022-08-07T12:03:47.244Z,43229.00
2022-08-07T12:04:47.162Z,41011.00
2022-08-07T12:05:49.540Z,42772.00
2022-08-07T12:06:51.680Z,42064.00
2022-08-07T12:07:53.837Z,42226.00
2022-08-07T12:08:48.145Z,43475.00
2022-08-07T12:09:47.118Z,40943.00
2022-08-07T12:10:47.107Z,41667.00
2022-08-07T12:12:09.502Z,41832.00
2022-08-07T12:12:48.114Z,43746.00
2022-08-07T12:13:47.811Z,42225.00
2022-08-07T12:14:52.675Z,43624.00
2022-08-07T12:16:05.766Z,45389.00
2022-08-07T12:16:47.060Z,41294.00
2022-08-07T12:17:59.718Z,44763.00
2022-08-07T12:18:47.041Z,47467.00
2022-08-07T12:20:02.519Z,45264.00
2022-08-07T12:20:49.164Z,43879.00
2022-08-07T12:22:36.073Z,46859.00
2022-08-07T12:22:58.367Z,47152.00
2022-08-07T12:24:07.184Z,44856.00
2022-08-07T12:25:02.079Z,46135.00
2022-08-07T12:26:03.083Z,47829.00
2022-08-07T12:26:49.317Z,46637.00
2022-08-07T12:28:09.101Z,51148.00
2022-08-07T12:28:49.775Z,51218.00
2022-08-07T12:29:46.948Z,51231.00
2022-08-07T12:30:53.277Z,26626.00
2022-08-07T12:31:52.972Z,24791.00
2022-08-07T12:32:46.925Z,23560.00
2022-08-07T12:34:00.788Z,23308.00
2022-08-07T12:34:49.406Z,40272.00
2022-08-07T12:35:48.246Z,45645.00
2022-08-07T12:36:49.413Z,52438.00
2022-08-07T12:38:11.531Z,53965.00
2022-08-07T12:38:57.407Z,53049.00
2022-08-07T12:39:50.812Z,56829.00
2022-08-07T12:42:40.658Z,57036.00
2022-08-07T12:42:54.911Z,56195.00
2022-08-07T12:44:05.067Z,46739.00
2022-08-07T12:44:48.032Z,54692.00
2022-08-07T12:48:28.412Z,58469.00
2022-08-07T12:48:28.423Z,47063.00
2022-08-07T12:49:39.760Z,57143.00
2022-08-07T12:51:23.392Z,55890.00
2022-08-07T12:51:33.436Z,55452.00
2022-08-07T12:52:34.278Z,54623.00
2022-08-07T12:55:03.764Z,57544.00
2022-08-07T12:55:09.419Z,57325.00
2022-08-07T14:02:03.790Z,56814.00
2022-08-07T14:02:04.568Z,47564.00
2022-08-07T14:02:58.908Z,29379.00
2022-08-07T14:04:08.104Z,29970.00
2022-08-07T14:05:03.950Z,56453.00
2022-08-07T14:06:07.715Z,52698.00
2022-08-07T14:08:37.507Z,52512.00
2022-08-07T14:08:38.913Z,48536.00
2022-08-07T14:10:02.988Z,26558.00
2022-08-07T14:10:42.173Z,29212.00
2022-08-07T14:12:00.341Z,48929.00
2022-08-07T14:19:02.768Z,54261.00
2022-08-07T14:19:04.289Z,44540.00
2022-08-07T14:20:42.160Z,47206.00
2022-08-07T14:22:10.609Z,55356.00
2022-08-07T14:22:10.800Z,30929.00
2022-08-07T14:24:03.653Z,53117.00
2022-08-07T14:24:07.501Z,40768.00
2022-08-07T14:25:07.486Z,33154.00
2022-08-07T14:26:07.529Z,53041.00
2022-08-07T14:28:55.888Z,49220.00
2022-08-07T14:28:57.404Z,54361.00
2022-08-07T14:33:17.197Z,53383.00
2022-08-07T14:33:24.612Z,33955.00
2022-08-07T14:34:29.294Z,29144.00
2022-08-07T14:40:55.138Z,57643.00
2022-08-07T14:40:56.610Z,54468.00
2022-08-07T14:42:20.248Z,26571.00
2022-08-07T14:43:01.399Z,25290.00
2022-08-07T14:44:07.878Z,24404.00
2022-08-07T14:44:59.947Z,24252.00
2022-08-07T14:45:56.531Z,25511.00
2022-08-07T14:47:14.559Z,52628.00
2022-08-07T14:47:58.614Z,23409.00
2022-08-07T14:48:56.507Z,23683.00
2022-08-07T14:49:59.334Z,25430.00
2022-08-07T14:50:56.489Z,29628.00
2022-08-07T14:52:04.242Z,21170.00
2022-08-07T14:52:56.469Z,20820.00
2022-08-07T14:54:30.557Z,21204.00
2022-08-07T14:54:56.454Z,21503.00
2022-08-07T14:56:02.079Z,21731.00
2022-08-07T14:56:56.437Z,22457.00
2022-08-07T14:58:58.416Z,45805.00
2022-08-07T15:03:24.777Z,47220.00
2022-08-07T15:03:52.303Z,43884.00
2022-08-07T15:04:32.161Z,29337.00
2022-08-07T15:05:31.128Z,27303.00
2022-08-07T15:06:31.123Z,28432.00
2022-08-07T15:07:51.290Z,32570.00
2022-08-07T15:08:32.234Z,38222.00
2022-08-07T15:09:31.093Z,33567.00
2022-08-07T15:10:32.107Z,33657.00
2022-08-07T15:11:53.725Z,40859.00
2022-08-07T15:12:33.071Z,34125.00
2022-08-07T15:13:35.816Z,26586.00
2022-08-07T15:14:31.053Z,23907.00
2022-08-07T15:15:31.043Z,35941.00
2022-08-07T15:16:34.059Z,25475.00
2022-08-07T15:17:31.337Z,20209.00
2022-08-07T15:20:30.740Z,19640.00
2022-08-07T15:21:44.288Z,20720.00
2022-08-07T15:22:33.438Z,20299.00
2022-08-07T15:25:13.101Z,20955.00
2022-08-07T15:25:14.521Z,20551.00
2022-08-07T15:25:36.823Z,22421.00
2022-08-07T15:26:31.973Z,22386.00
2022-08-07T15:27:31.217Z,23072.00
2022-08-07T15:31:04.441Z,43222.00
2022-08-07T15:31:05.393Z,46174.00
2022-08-07T15:37:03.038Z,29121.00
2022-08-07T15:37:03.245Z,43946.00
2022-08-07T15:40:35.012Z,44705.00
2022-08-07T15:40:36.694Z,38431.00
2022-08-07T15:42:43.353Z,37903.00
2022-08-07T15:44:38.656Z,19350.00
2022-08-07T15:45:57.669Z,18412.00
2022-08-07T15:46:51.762Z,18334.00
2022-08-07T15:48:02.390Z,18830.00
2022-08-07T15:48:37.640Z,17762.00
2022-08-07T15:50:03.700Z,17320.00
2022-08-07T15:52:36.897Z,18966.00
2022-08-07T15:53:51.877Z,20075.00
2022-08-07T15:54:39.495Z,39158.00
2022-08-07T15:56:02.412Z,35587.00
2022-08-07T15:56:37.574Z,36264.00
2022-08-07T15:57:39.768Z,19811.00
2022-08-07T15:58:37.556Z,18760.00
2022-08-07T15:59:39.982Z,21841.00
2022-08-07T16:00:37.968Z,17529.00
2022-08-07T16:01:39.103Z,16891.00
2022-08-07T16:02:36.509Z,16219.00
2022-08-07T16:03:46.095Z,15612.00
2022-08-07T16:04:37.502Z,15167.00
2022-08-07T16:05:36.470Z,15060.00
2022-08-07T16:06:36.464Z,14800.00
2022-08-07T16:08:32.328Z,14433.00
2022-08-07T16:08:38.998Z,15984.00
2022-08-07T16:09:41.871Z,13996.00
2022-08-07T16:10:36.422Z,14649.00
2022-08-07T16:11:39.919Z,13630.00
2022-08-07T16:12:38.951Z,13934.00
2022-08-07T16:13:57.918Z,14198.00
2022-08-07T16:14:37.411Z,14498.00
2022-08-07T16:15:55.003Z,14817.00
2022-08-07T16:16:48.417Z,15475.00
2022-08-07T16:18:02.134Z,16221.00
2022-08-07T16:18:49.314Z,16339.00
2022-08-07T16:19:42.592Z,16354.00
2022-08-07T16:20:36.993Z,16743.00
2022-08-07T16:22:02.062Z,16993.00
2022-08-07T16:22:37.956Z,17061.00
2022-08-07T16:23:54.297Z,17625.00
2022-08-07T16:24:37.314Z,18581.00
2022-08-07T16:25:52.473Z,16666.00
2022-08-07T16:26:37.294Z,15590.00
2022-08-07T16:27:39.979Z,15477.00
2022-08-07T16:30:06.767Z,16111.00
2022-08-07T16:30:11.187Z,18474.00
2022-08-07T16:30:37.254Z,17330.00
2022-08-07T16:31:51.844Z,19329.00
2022-08-07T16:32:37.426Z,14189.00
2022-08-07T16:34:02.520Z,13195.00
2022-08-07T16:34:36.197Z,12449.00
2022-08-07T16:35:57.086Z,12501.00
2022-08-07T16:37:02.784Z,11680.00
2022-08-07T16:38:06.471Z,10637.00
2022-08-07T16:39:00.137Z,9838.00
2022-08-07T16:39:48.929Z,9229.00
2022-08-07T16:40:37.241Z,8551.00
2022-08-07T16:41:41.126Z,7834.00
2022-08-07T16:42:36.613Z,7703.00
2022-08-07T16:44:02.696Z,7110.00
2022-08-07T16:44:55.469Z,6462.00
2022-08-07T16:46:40.364Z,6099.00
2022-08-07T16:47:07.676Z,6102.00
2022-08-07T16:47:56.571Z,6140.00
2022-08-07T16:49:04.205Z,6172.00
2022-08-07T16:50:20.855Z,6295.00
2022-08-07T16:50:48.234Z,6258.00
2022-08-07T16:52:01.667Z,6208.00
2022-08-07T16:52:55.698Z,6092.00
2022-08-07T16:54:01.673Z,6030.00
2022-08-07T16:54:36.005Z,6007.00
2022-08-07T16:55:47.079Z,6049.00
2022-08-07T16:56:37.672Z,6169.00
2022-08-07T16:58:02.622Z,6368.00
2022-08-07T16:59:02.334Z,6640.00
2022-08-07T16:59:47.061Z,6818.00
2022-08-07T17:00:36.966Z,6875.00
2022-08-07T17:01:36.028Z,6847.00
2022-08-07T17:03:04.942Z,6639.00
2022-08-07T17:03:58.473Z,6303.00
2022-08-07T17:04:52.984Z,6020.00
2022-08-07T17:06:20.008Z,5842.00
2022-08-07T17:06:44.211Z,5732.00
2022-08-07T17:07:51.510Z,5652.00
2022-08-07T17:09:09.837Z,5540.00
2022-08-07T17:10:07.928Z,5277.00
2022-08-07T17:10:36.872Z,4972.00
2022-08-07T17:11:50.757Z,4790.00
2022-08-07T17:12:39.878Z,4778.00
2022-08-07T17:13:38.915Z,4830.00
2022-08-07T17:14:35.811Z,4853.00
2022-08-07T17:15:43.654Z,4757.00
2022-08-07T17:16:35.801Z,4309.00
2022-08-07T17:17:43.930Z,3666.00
2022-08-07T17:18:36.792Z,2986.00